sensor_id;sensor_type;location;lat;lon;timestamp;pressure;altitude;pressure_sealevel;temperature;humidity
54854;BME280;40747;49.480;8.658;2023-05-08T00:00:16;100613.28;;;15.69;100.00
54854;BME280;40747;49.480;8.658;2023-05-08T00:02:41;100615.50;;;15.78;100.00
54854;BME280;40747;49.480;8.658;2023-05-08T00:05:07;100615.94;;;15.88;100.00
54854;BME280;40747;49.480;8.658;2023-05-08T00:07:32;100619.41;;;15.90;100.00
54854;BME280;40747;49.480;8.658;2023-05-08T00:09:57;100617.53;;;15.92;100.00
54854;BME280;40747;49.480;8.658;2023-05-08T00:12:23;100619.41;;;15.90;100.00
54854;BME280;40747;49.480;8.658;2023-05-08T00:14:48;100613.91;;;15.74;100.00
54854;BME280;40747;49.480;8.658;2023-05-08T00:17:13;100618.03;;;15.81;100.00
54854;BME280;40747;49.480;8.658;2023-05-08T00:19:39;100611.34;;;15.72;100.00
54854;BME280;40747;49.480;8.658;2023-05-08T00:22:04;100612.97;;;15.75;100.00
54854;BME280;40747;49.480;8.658;2023-05-08T00:24:29;100626.84;;;15.82;100.00
54854;BME280;40747;49.480;8.658;2023-05-08T00:26:55;100617.75;;;15.87;100.00
54854;BME280;40747;49.480;8.658;2023-05-08T00:29:20;100616.75;;;15.90;100.00
54854;BME280;40747;49.480;8.658;2023-05-08T00:31:45;100619.25;;;15.93;100.00
54854;BME280;40747;49.480;8.658;2023-05-08T00:34:10;100619.09;;;15.96;100.00
54854;BME280;40747;49.480;8.658;2023-05-08T00:36:36;100619.56;;;15.87;100.00
54854;BME280;40747;49.480;8.658;2023-05-08T00:39:01;100617.56;;;15.71;100.00
54854;BME280;40747;49.480;8.658;2023-05-08T00:41:26;100616.94;;;15.47;100.00
54854;BME280;40747;49.480;8.658;2023-05-08T00:43:51;100610.63;;;15.50;100.00
54854;BME280;40747;49.480;8.658;2023-05-08T00:46:17;100608.69;;;15.53;100.00
54854;BME280;40747;49.480;8.658;2023-05-08T00:48:42;100605.97;;;15.55;100.00
54854;BME280;40747;49.480;8.658;2023-05-08T00:51:09;100610.78;;;15.47;100.00
54854;BME280;40747;49.480;8.658;2023-05-08T00:53:38;100615.50;;;15.40;100.00
54854;BME280;40747;49.480;8.658;2023-05-08T00:56:04;100606.97;;;15.33;100.00
54854;BME280;40747;49.480;8.658;2023-05-08T00:58:31;100621.34;;;15.08;100.00
54854;BME280;40747;49.480;8.658;2023-05-08T01:00:56;100614.09;;;15.12;100.00
54854;BME280;40747;49.480;8.658;2023-05-08T01:03:22;100618.63;;;15.29;100.00
54854;BME280;40747;49.480;8.658;2023-05-08T01:05:48;100621.94;;;15.34;100.00
54854;BME280;40747;49.480;8.658;2023-05-08T01:08:14;100613.59;;;15.44;100.00
54854;BME280;40747;49.480;8.658;2023-05-08T01:14:03;100618.56;;;15.69;100.00
54854;BME280;40747;49.480;8.658;2023-05-08T01:17:04;100629.28;;;15.67;100.00
54854;BME280;40747;49.480;8.658;2023-05-08T01:19:51;100624.97;;;15.46;100.00
54854;BME280;40747;49.480;8.658;2023-05-08T01:32:56;100628.28;;;15.70;100.00
54854;BME280;40747;49.480;8.658;2023-05-08T01:35:36;100633.13;;;15.79;100.00
54854;BME280;40747;49.480;8.658;2023-05-08T01:38:08;100630.44;;;15.81;100.00
54854;BME280;40747;49.480;8.658;2023-05-08T01:40:50;100626.41;;;15.72;100.00
54854;BME280;40747;49.480;8.658;2023-05-08T01:43:30;100627.84;;;15.79;100.00
54854;BME280;40747;49.480;8.658;2023-05-08T01:46:03;100625.88;;;15.84;100.00
54854;BME280;40747;49.480;8.658;2023-05-08T01:48:31;100636.56;;;15.83;100.00
54854;BME280;40747;49.480;8.658;2023-05-08T01:51:04;100638.78;;;15.73;100.00
54854;BME280;40747;49.480;8.658;2023-05-08T01:53:40;100633.59;;;15.70;100.00
54854;BME280;40747;49.480;8.658;2023-05-08T01:56:13;100640.47;;;15.74;100.00
54854;BME280;40747;49.480;8.658;2023-05-08T01:58:41;100635.22;;;15.72;100.00
54854;BME280;40747;49.480;8.658;2023-05-08T02:01:08;100634.75;;;15.64;100.00
54854;BME280;40747;49.480;8.658;2023-05-08T02:03:36;100634.81;;;15.63;100.00
54854;BME280;40747;49.480;8.658;2023-05-08T02:06:03;100651.16;;;15.72;100.00
54854;BME280;40747;49.480;8.658;2023-05-08T02:08:29;100651.41;;;15.68;100.00
54854;BME280;40747;49.480;8.658;2023-05-08T02:10:57;100654.84;;;15.70;100.00
54854;BME280;40747;49.480;8.658;2023-05-08T02:13:25;100642.78;;;15.63;100.00
54854;BME280;40747;49.480;8.658;2023-05-08T02:15:53;100653.09;;;15.69;100.00
54854;BME280;40747;49.480;8.658;2023-05-08T02:18:20;100644.38;;;15.67;100.00
54854;BME280;40747;49.480;8.658;2023-05-08T02:20:51;100647.66;;;15.53;100.00
54854;BME280;40747;49.480;8.658;2023-05-08T02:23:19;100651.38;;;15.30;100.00
54854;BME280;40747;49.480;8.658;2023-05-08T02:25:47;100651.53;;;15.06;100.00
54854;BME280;40747;49.480;8.658;2023-05-08T02:28:14;100645.47;;;15.23;100.00
54854;BME280;40747;49.480;8.658;2023-05-08T02:30:41;100646.97;;;15.29;100.00
54854;BME280;40747;49.480;8.658;2023-05-08T02:33:09;100647.22;;;15.43;100.00
54854;BME280;40747;49.480;8.658;2023-05-08T02:35:36;100645.19;;;15.29;100.00
54854;BME280;40747;49.480;8.658;2023-05-08T02:38:04;100645.19;;;15.29;100.00
54854;BME280;40747;49.480;8.658;2023-05-08T02:40:37;100650.44;;;15.10;100.00
54854;BME280;40747;49.480;8.658;2023-05-08T02:43:04;100644.66;;;14.81;100.00
54854;BME280;40747;49.480;8.658;2023-05-08T02:45:39;100652.09;;;14.94;100.00
54854;BME280;40747;49.480;8.658;2023-05-08T02:48:09;100648.69;;;14.90;100.00
54854;BME280;40747;49.480;8.658;2023-05-08T02:50:54;100646.88;;;14.90;100.00
54854;BME280;40747;49.480;8.658;2023-05-08T02:53:31;100658.03;;;14.78;100.00
54854;BME280;40747;49.480;8.658;2023-05-08T02:56:07;100656.44;;;14.95;100.00
54854;BME280;40747;49.480;8.658;2023-05-08T02:58:41;100658.03;;;14.99;100.00
54854;BME280;40747;49.480;8.658;2023-05-08T03:01:53;100654.09;;;15.07;100.00
54854;BME280;40747;49.480;8.658;2023-05-08T03:04:25;100648.69;;;14.90;100.00
54854;BME280;40747;49.480;8.658;2023-05-08T03:06:55;100650.28;;;14.94;100.00
54854;BME280;40747;49.480;8.658;2023-05-08T03:09:22;100648.72;;;14.88;100.00
54854;BME280;40747;49.480;8.658;2023-05-08T03:11:54;100629.47;;;14.85;100.00
54854;BME280;40747;49.480;8.658;2023-05-08T03:14:24;100653.59;;;14.99;100.00
54854;BME280;40747;49.480;8.658;2023-05-08T03:16:52;100656.16;;;15.01;100.00
54854;BME280;40747;49.480;8.658;2023-05-08T03:19:23;100650.44;;;15.10;100.00
54854;BME280;40747;49.480;8.658;2023-05-08T03:21:51;100641.19;;;15.00;100.00
54854;BME280;40747;49.480;8.658;2023-05-08T03:24:18;100653.31;;;15.05;100.00
54854;BME280;40747;49.480;8.658;2023-05-08T03:26:44;100653.25;;;15.07;100.00
54854;BME280;40747;49.480;8.658;2023-05-08T03:29:12;100654.50;;;15.19;100.00
54854;BME280;40747;49.480;8.658;2023-05-08T03:31:38;100646.75;;;15.14;100.00
54854;BME280;40747;49.480;8.658;2023-05-08T03:34:05;100645.03;;;15.13;100.00
54854;BME280;40747;49.480;8.658;2023-05-08T03:36:32;100650.66;;;15.05;100.00
54854;BME280;40747;49.480;8.658;2023-05-08T03:38:58;100645.88;;;15.14;100.00
54854;BME280;40747;49.480;8.658;2023-05-08T03:41:24;100638.84;;;15.13;100.00
54854;BME280;40747;49.480;8.658;2023-05-08T03:43:49;100648.91;;;15.25;100.00
54854;BME280;40747;49.480;8.658;2023-05-08T03:46:15;100653.09;;;15.31;100.00
54854;BME280;40747;49.480;8.658;2023-05-08T03:48:42;100646.34;;;15.43;100.00
54854;BME280;40747;49.480;8.658;2023-05-08T03:51:08;100655.41;;;15.38;100.00
54854;BME280;40747;49.480;8.658;2023-05-08T03:53:34;100651.28;;;15.31;100.00
54854;BME280;40747;49.480;8.658;2023-05-08T03:55:59;100651.56;;;15.25;100.00
54854;BME280;40747;49.480;8.658;2023-05-08T04:01:40;100652.22;;;15.30;100.00
54854;BME280;40747;49.480;8.658;2023-05-08T04:04:13;100651.22;;;15.33;100.00
54854;BME280;40747;49.480;8.658;2023-05-08T04:06:47;100647.06;;;15.27;100.00
54854;BME280;40747;49.480;8.658;2023-05-08T04:09:16;100664.25;;;15.18;100.00
54854;BME280;40747;49.480;8.658;2023-05-08T04:14:25;100658.59;;;15.26;100.00
54854;BME280;40747;49.480;8.658;2023-05-08T04:16:55;100656.22;;;15.20;100.00
54854;BME280;40747;49.480;8.658;2023-05-08T04:19:28;100665.84;;;15.22;100.00
54854;BME280;40747;49.480;8.658;2023-05-08T04:21:57;100661.53;;;15.20;100.00
54854;BME280;40747;49.480;8.658;2023-05-08T04:24:24;100662.13;;;15.06;100.00
54854;BME280;40747;49.480;8.658;2023-05-08T04:26:52;100659.38;;;15.09;100.00
54854;BME280;40747;49.480;8.658;2023-05-08T04:29:18;100655.25;;;15.02;100.00
54854;BME280;40747;49.480;8.658;2023-05-08T04:31:44;100644.97;;;14.94;100.00
54854;BME280;40747;49.480;8.658;2023-05-08T04:34:09;100659.94;;;15.16;100.00
54854;BME280;40747;49.480;8.658;2023-05-08T04:36:36;100663.44;;;15.16;100.00
54854;BME280;40747;49.480;8.658;2023-05-08T04:39:01;100663.38;;;15.18;100.00
54854;BME280;40747;49.480;8.658;2023-05-08T04:41:27;100666.75;;;15.21;100.00
54854;BME280;40747;49.480;8.658;2023-05-08T04:43:53;100675.78;;;15.17;100.00
54854;BME280;40747;49.480;8.658;2023-05-08T04:46:18;100672.41;;;15.14;100.00
54854;BME280;40747;49.480;8.658;2023-05-08T04:48:43;100679.28;;;15.18;100.00
54854;BME280;40747;49.480;8.658;2023-05-08T04:51:09;100682.03;;;15.16;100.00
54854;BME280;40747;49.480;8.658;2023-05-08T04:53:34;100683.25;;;15.09;100.00
54854;BME280;40747;49.480;8.658;2023-05-08T04:55:59;100686.69;;;14.90;100.00
54854;BME280;40747;49.480;8.658;2023-05-08T04:58:25;100689.88;;;14.99;100.00
54854;BME280;40747;49.480;8.658;2023-05-08T05:00:50;100678.47;;;14.76;100.00
54854;BME280;40747;49.480;8.658;2023-05-08T05:03:15;100690.56;;;15.02;100.00
54854;BME280;40747;49.480;8.658;2023-05-08T05:05:40;100694.22;;;15.00;100.00
54854;BME280;40747;49.480;8.658;2023-05-08T05:08:06;100701.00;;;15.07;100.00
54854;BME280;40747;49.480;8.658;2023-05-08T05:10:31;100701.19;;;15.02;100.00
54854;BME280;40747;49.480;8.658;2023-05-08T05:12:56;100708.28;;;15.22;100.00
54854;BME280;40747;49.480;8.658;2023-05-08T05:15:22;100703.03;;;15.42;100.00
54854;BME280;40747;49.480;8.658;2023-05-08T05:17:47;100702.34;;;15.57;100.00
54854;BME280;40747;49.480;8.658;2023-05-08T05:20:12;100710.81;;;15.65;100.00
54854;BME280;40747;49.480;8.658;2023-05-08T05:22:38;100707.00;;;15.71;100.00
54854;BME280;40747;49.480;8.658;2023-05-08T05:25:06;100708.50;;;15.77;100.00
54854;BME280;40747;49.480;8.658;2023-05-08T05:27:35;100707.25;;;15.85;100.00
54854;BME280;40747;49.480;8.658;2023-05-08T05:30:03;100706.88;;;15.74;100.00
54854;BME280;40747;49.480;8.658;2023-05-08T05:32:29;100703.13;;;15.59;100.00
54854;BME280;40747;49.480;8.658;2023-05-08T05:34:54;100705.06;;;15.55;100.00
54854;BME280;40747;49.480;8.658;2023-05-08T05:37:20;100707.56;;;15.59;100.00
54854;BME280;40747;49.480;8.658;2023-05-08T05:39:45;100708.66;;;15.54;100.00
54854;BME280;40747;49.480;8.658;2023-05-08T05:42:10;100721.00;;;15.55;100.00
54854;BME280;40747;49.480;8.658;2023-05-08T05:44:36;100714.75;;;15.56;100.00
54854;BME280;40747;49.480;8.658;2023-05-08T05:47:01;100721.38;;;15.67;100.00
54854;BME280;40747;49.480;8.658;2023-05-08T05:49:29;100721.28;;;15.68;100.00
54854;BME280;40747;49.480;8.658;2023-05-08T05:51:54;100715.41;;;15.62;100.00
54854;BME280;40747;49.480;8.658;2023-05-08T05:54:19;100721.28;;;15.68;100.00
54854;BME280;40747;49.480;8.658;2023-05-08T05:56:45;100729.03;;;15.54;100.00
54854;BME280;40747;49.480;8.658;2023-05-08T05:59:10;100706.50;;;15.44;100.00
54854;BME280;40747;49.480;8.658;2023-05-08T06:01:35;100726.41;;;15.52;100.00
54854;BME280;40747;49.480;8.658;2023-05-08T06:04:00;100726.56;;;15.49;100.00
54854;BME280;40747;49.480;8.658;2023-05-08T06:06:26;100729.50;;;15.43;100.00
54854;BME280;40747;49.480;8.658;2023-05-08T06:08:51;100726.13;;;15.39;100.00
54854;BME280;40747;49.480;8.658;2023-05-08T06:11:16;100730.75;;;15.34;100.00
54854;BME280;40747;49.480;8.658;2023-05-08T06:13:42;100727.56;;;15.47;100.00
54854;BME280;40747;49.480;8.658;2023-05-08T06:16:08;100733.16;;;15.40;100.00
54854;BME280;40747;49.480;8.658;2023-05-08T06:18:33;100726.84;;;15.43;100.00
54854;BME280;40747;49.480;8.658;2023-05-08T06:20:58;100728.16;;;15.53;100.00
54854;BME280;40747;49.480;8.658;2023-05-08T06:23:24;100735.00;;;15.59;100.00
54854;BME280;40747;49.480;8.658;2023-05-08T06:25:50;100729.06;;;15.52;100.00
54854;BME280;40747;49.480;8.658;2023-05-08T06:28:15;100731.53;;;15.57;100.00
54854;BME280;40747;49.480;8.658;2023-05-08T06:30:40;100731.19;;;15.65;100.00
54854;BME280;40747;49.480;8.658;2023-05-08T06:33:07;100731.75;;;15.71;100.00
54854;BME280;40747;49.480;8.658;2023-05-08T06:35:33;100733.66;;;15.69;100.00
54854;BME280;40747;49.480;8.658;2023-05-08T06:38:01;100729.06;;;15.73;100.00
54854;BME280;40747;49.480;8.658;2023-05-08T06:40:26;100734.72;;;15.65;100.00
54854;BME280;40747;49.480;8.658;2023-05-08T06:42:52;100743.38;;;15.69;100.00
54854;BME280;40747;49.480;8.658;2023-05-08T06:45:17;100728.91;;;15.76;100.00
54854;BME280;40747;49.480;8.658;2023-05-08T06:47:42;100731.84;;;15.70;100.00
54854;BME280;40747;49.480;8.658;2023-05-08T06:50:08;100736.44;;;15.87;100.00
54854;BME280;40747;49.480;8.658;2023-05-08T06:52:33;100737.44;;;15.84;100.00
54854;BME280;40747;49.480;8.658;2023-05-08T06:54:58;100743.13;;;15.75;100.00
54854;BME280;40747;49.480;8.658;2023-05-08T06:57:24;100739.88;;;15.89;100.00
54854;BME280;40747;49.480;8.658;2023-05-08T06:59:51;100742.09;;;15.98;100.00
54854;BME280;40747;49.480;8.658;2023-05-08T07:02:17;100741.59;;;16.09;100.00
54854;BME280;40747;49.480;8.658;2023-05-08T07:04:43;100750.34;;;16.11;100.00
54854;BME280;40747;49.480;8.658;2023-05-08T07:07:08;100744.38;;;16.25;100.00
54854;BME280;40747;49.480;8.658;2023-05-08T07:09:33;100745.81;;;16.32;100.00
54854;BME280;40747;49.480;8.658;2023-05-08T07:11:59;100747.25;;;16.40;100.00
54854;BME280;40747;49.480;8.658;2023-05-08T07:14:24;100753.22;;;16.45;100.00
54854;BME280;40747;49.480;8.658;2023-05-08T07:16:49;100748.38;;;16.53;100.00
54854;BME280;40747;49.480;8.658;2023-05-08T07:19:15;100753.69;;;16.53;100.00
54854;BME280;40747;49.480;8.658;2023-05-08T07:21:40;100748.00;;;16.61;100.00
54854;BME280;40747;49.480;8.658;2023-05-08T07:24:05;100756.69;;;16.64;100.00
54854;BME280;40747;49.480;8.658;2023-05-08T07:26:31;100759.44;;;16.63;99.87
54854;BME280;40747;49.480;8.658;2023-05-08T07:28:56;100753.00;;;16.67;100.00
54854;BME280;40747;49.480;8.658;2023-05-08T07:31:21;100763.88;;;16.62;100.00
54854;BME280;40747;49.480;8.658;2023-05-08T07:33:47;100758.88;;;16.74;100.00
54854;BME280;40747;49.480;8.658;2023-05-08T07:36:12;100764.41;;;16.88;100.00
54854;BME280;40747;49.480;8.658;2023-05-08T07:38:37;100759.38;;;16.82;100.00
54854;BME280;40747;49.480;8.658;2023-05-08T07:41:03;100766.47;;;16.81;100.00
54854;BME280;40747;49.480;8.658;2023-05-08T07:43:30;100759.06;;;16.88;100.00
54854;BME280;40747;49.480;8.658;2023-05-08T07:45:55;100763.34;;;16.92;99.33
54854;BME280;40747;49.480;8.658;2023-05-08T07:48:21;100762.13;;;16.80;98.42
54854;BME280;40747;49.480;8.658;2023-05-08T07:50:48;100767.63;;;16.95;99.62
54854;BME280;40747;49.480;8.658;2023-05-08T07:53:13;100765.06;;;16.93;98.04
54854;BME280;40747;49.480;8.658;2023-05-08T07:55:39;100756.41;;;16.88;97.85
54854;BME280;40747;49.480;8.658;2023-05-08T07:58:04;100762.59;;;16.88;97.66
54854;BME280;40747;49.480;8.658;2023-05-08T08:00:30;100763.88;;;16.99;98.13
54854;BME280;40747;49.480;8.658;2023-05-08T08:02:56;100767.25;;;17.02;97.57
54854;BME280;40747;49.480;8.658;2023-05-08T08:05:21;100763.72;;;17.02;97.51
54854;BME280;40747;49.480;8.658;2023-05-08T08:07:47;100763.78;;;17.00;98.49
54854;BME280;40747;49.480;8.658;2023-05-08T08:10:12;100759.59;;;17.14;97.47
54854;BME280;40747;49.480;8.658;2023-05-08T08:12:38;100758.94;;;16.91;97.57
54854;BME280;40747;49.480;8.658;2023-05-08T08:15:04;100770.03;;;16.99;98.23
54854;BME280;40747;49.480;8.658;2023-05-08T08:17:29;100756.22;;;17.10;99.60
54854;BME280;40747;49.480;8.658;2023-05-08T08:19:55;100766.38;;;17.19;98.08
54854;BME280;40747;49.480;8.658;2023-05-08T08:22:21;100768.09;;;17.20;97.34
54854;BME280;40747;49.480;8.658;2023-05-08T08:24:46;100766.88;;;17.28;96.93
54854;BME280;40747;49.480;8.658;2023-05-08T08:27:11;100766.78;;;17.29;98.05
54854;BME280;40747;49.480;8.658;2023-05-08T08:29:37;100760.75;;;17.26;96.88
54854;BME280;40747;49.480;8.658;2023-05-08T08:32:02;100767.16;;;17.04;97.13
54854;BME280;40747;49.480;8.658;2023-05-08T08:34:28;100764.03;;;17.31;98.55
54854;BME280;40747;49.480;8.658;2023-05-08T08:36:53;100770.78;;;17.38;96.66
54854;BME280;40747;49.480;8.658;2023-05-08T08:39:18;100752.03;;;17.40;97.52
54854;BME280;40747;49.480;8.658;2023-05-08T08:41:44;100762.06;;;17.34;97.21
54854;BME280;40747;49.480;8.658;2023-05-08T08:44:09;100759.84;;;17.43;96.66
54854;BME280;40747;49.480;8.658;2023-05-08T08:46:38;100763.34;;;17.61;96.80
54854;BME280;40747;49.480;8.658;2023-05-08T08:49:07;100760.03;;;17.73;96.67
54854;BME280;40747;49.480;8.658;2023-05-08T08:51:45;100760.03;;;17.73;96.90
54854;BME280;40747;49.480;8.658;2023-05-08T08:54:18;100769.69;;;17.58;96.05
54854;BME280;40747;49.480;8.658;2023-05-08T08:56:47;100766.88;;;17.61;95.19
54854;BME280;40747;49.480;8.658;2023-05-08T08:59:15;100767.88;;;17.76;94.96
54854;BME280;40747;49.480;8.658;2023-05-08T09:01:43;100771.56;;;17.74;95.67
54854;BME280;40747;49.480;8.658;2023-05-08T09:04:09;100769.88;;;17.89;96.68
54854;BME280;40747;49.480;8.658;2023-05-08T09:06:38;100768.31;;;18.02;95.88
54854;BME280;40747;49.480;8.658;2023-05-08T09:09:05;100768.13;;;17.88;95.18
54854;BME280;40747;49.480;8.658;2023-05-08T09:11:30;100764.88;;;17.82;95.39
54854;BME280;40747;49.480;8.658;2023-05-08T09:13:56;100770.56;;;17.76;95.34
54854;BME280;40747;49.480;8.658;2023-05-08T09:16:23;100772.09;;;17.80;95.89
54854;BME280;40747;49.480;8.658;2023-05-08T09:18:48;100770.69;;;17.73;95.15
54854;BME280;40747;49.480;8.658;2023-05-08T09:21:14;100776.63;;;17.78;95.50
54854;BME280;40747;49.480;8.658;2023-05-08T09:24:00;100767.63;;;17.81;96.51
54854;BME280;40747;49.480;8.658;2023-05-08T09:26:33;100776.13;;;17.88;95.64
54854;BME280;40747;49.480;8.658;2023-05-08T09:31:36;100783.50;;;17.82;96.88
54854;BME280;40747;49.480;8.658;2023-05-08T09:34:09;100758.44;;;17.87;98.54
54854;BME280;40747;49.480;8.658;2023-05-08T09:36:35;100786.03;;;18.19;99.46
54854;BME280;40747;49.480;8.658;2023-05-08T09:39:01;100790.75;;;18.30;97.98
54854;BME280;40747;49.480;8.658;2023-05-08T09:41:27;100788.72;;;18.35;96.21
54854;BME280;40747;49.480;8.658;2023-05-08T09:44:03;100799.97;;;18.40;95.34
54854;BME280;40747;49.480;8.658;2023-05-08T09:46:29;100797.91;;;18.45;96.59
54854;BME280;40747;49.480;8.658;2023-05-08T09:48:56;100795.06;;;18.48;96.40
54854;BME280;40747;49.480;8.658;2023-05-08T09:51:24;100793.00;;;18.54;96.68
54854;BME280;40747;49.480;8.658;2023-05-08T09:53:51;100792.75;;;18.58;95.46
54854;BME280;40747;49.480;8.658;2023-05-08T09:56:33;100796.44;;;18.56;96.23
54854;BME280;40747;49.480;8.658;2023-05-08T09:59:01;100803.16;;;18.47;95.48
54854;BME280;40747;49.480;8.658;2023-05-08T10:01:31;100797.03;;;18.61;96.22
54854;BME280;40747;49.480;8.658;2023-05-08T10:03:57;100809.34;;;18.63;98.59
54854;BME280;40747;49.480;8.658;2023-05-08T10:06:23;100807.28;;;18.69;98.35
54854;BME280;40747;49.480;8.658;2023-05-08T10:09:05;100811.22;;;18.61;97.36
54854;BME280;40747;49.480;8.658;2023-05-08T10:11:30;100818.56;;;18.42;96.91
54854;BME280;40747;49.480;8.658;2023-05-08T10:13:56;100815.53;;;18.32;97.09
54854;BME280;40747;49.480;8.658;2023-05-08T10:16:21;100817.03;;;18.38;96.40
54854;BME280;40747;49.480;8.658;2023-05-08T10:18:48;100820.72;;;18.35;97.37
54854;BME280;40747;49.480;8.658;2023-05-08T10:21:15;100818.53;;;18.26;97.34
54854;BME280;40747;49.480;8.658;2023-05-08T10:23:41;100812.44;;;18.24;97.90
54854;BME280;40747;49.480;8.658;2023-05-08T10:26:15;100816.66;;;18.28;96.88
54854;BME280;40747;49.480;8.658;2023-05-08T10:28:43;100813.63;;;18.18;97.65
54854;BME280;40747;49.480;8.658;2023-05-08T10:31:13;100818.91;;;18.36;97.25
54854;BME280;40747;49.480;8.658;2023-05-08T10:33:44;100813.66;;;18.50;96.50
54854;BME280;40747;49.480;8.658;2023-05-08T10:36:10;100810.81;;;18.53;96.39
54854;BME280;40747;49.480;8.658;2023-05-08T10:38:38;100821.56;;;18.67;96.01
54854;BME280;40747;49.480;8.658;2023-05-08T10:41:05;100807.63;;;18.62;92.87
54854;BME280;40747;49.480;8.658;2023-05-08T10:43:32;100810.38;;;18.45;92.66
54854;BME280;40747;49.480;8.658;2023-05-08T10:46:01;100802.97;;;18.66;94.94
54854;BME280;40747;49.480;8.658;2023-05-08T10:48:41;100809.50;;;18.76;93.57
54854;BME280;40747;49.480;8.658;2023-05-08T10:51:34;100803.81;;;18.66;93.18
54854;BME280;40747;49.480;8.658;2023-05-08T10:54:07;100800.38;;;18.80;93.33
54854;BME280;40747;49.480;8.658;2023-05-08T10:56:36;100800.13;;;18.85;92.19
54854;BME280;40747;49.480;8.658;2023-05-08T10:59:02;100797.38;;;18.23;93.54
54854;BME280;40747;49.480;8.658;2023-05-08T11:01:28;100805.44;;;17.88;96.46
54854;BME280;40747;49.480;8.658;2023-05-08T11:03:53;100796.75;;;18.01;96.67
54854;BME280;40747;49.480;8.658;2023-05-08T11:06:44;100794.63;;;17.91;96.69
54854;BME280;40747;49.480;8.658;2023-05-08T11:09:18;100787.06;;;17.83;96.64
54854;BME280;40747;49.480;8.658;2023-05-08T11:11:51;100789.03;;;18.13;95.55
54854;BME280;40747;49.480;8.658;2023-05-08T11:14:20;100793.78;;;18.40;95.42
54854;BME280;40747;49.480;8.658;2023-05-08T11:19:26;100788.53;;;18.38;94.24
54854;BME280;40747;49.480;8.658;2023-05-08T11:30:36;100772.28;;;18.43;93.86
54854;BME280;40747;49.480;8.658;2023-05-08T11:36:25;100770.28;;;18.62;94.82
54854;BME280;40747;49.480;8.658;2023-05-08T11:38:30;100772.09;;;18.14;94.77
54854;BME280;40747;49.480;8.658;2023-05-08T11:41:22;100773.81;;;18.47;95.25
54854;BME280;40747;49.480;8.658;2023-05-08T11:46:40;100769.47;;;18.76;94.00
54854;BME280;40747;49.480;8.658;2023-05-08T11:49:16;100765.97;;;19.06;92.96
54854;BME280;40747;49.480;8.658;2023-05-08T11:51:47;100770.16;;;19.41;95.04
54854;BME280;40747;49.480;8.658;2023-05-08T11:54:17;100772.56;;;19.60;94.34
54854;BME280;40747;49.480;8.658;2023-05-08T11:56:50;100776.75;;;19.49;93.30
54854;BME280;40747;49.480;8.658;2023-05-08T11:59:16;100769.69;;;19.34;91.67
54854;BME280;40747;49.480;8.658;2023-05-08T12:01:42;100772.72;;;19.42;88.65
54854;BME280;40747;49.480;8.658;2023-05-08T12:04:10;100771.88;;;19.27;87.86
54854;BME280;40747;49.480;8.658;2023-05-08T12:06:37;100779.34;;;19.06;87.56
54854;BME280;40747;49.480;8.658;2023-05-08T12:09:10;100773.28;;;18.72;88.11
54854;BME280;40747;49.480;8.658;2023-05-08T12:11:36;100773.91;;;19.08;87.77
54854;BME280;40747;49.480;8.658;2023-05-08T12:14:01;100773.06;;;19.07;87.93
54854;BME280;40747;49.480;8.658;2023-05-08T12:16:27;100775.13;;;19.32;88.15
54854;BME280;40747;49.480;8.658;2023-05-08T12:18:55;100778.75;;;19.31;87.27
54854;BME280;40747;49.480;8.658;2023-05-08T12:21:21;100777.59;;;19.05;87.77
54854;BME280;40747;49.480;8.658;2023-05-08T12:23:47;100775.69;;;18.93;88.15
54854;BME280;40747;49.480;8.658;2023-05-08T12:26:12;100778.03;;;19.13;88.51
54854;BME280;40747;49.480;8.658;2023-05-08T12:28:38;100772.47;;;19.02;88.01
54854;BME280;40747;49.480;8.658;2023-05-08T12:31:05;100770.97;;;19.12;88.05
54854;BME280;40747;49.480;8.658;2023-05-08T12:33:32;100770.31;;;19.68;86.53
54854;BME280;40747;49.480;8.658;2023-05-08T12:35:58;100768.84;;;19.48;84.44
54854;BME280;40747;49.480;8.658;2023-05-08T12:38:25;100771.50;;;19.77;85.26
54854;BME280;40747;49.480;8.658;2023-05-08T12:40:51;100774.28;;;20.19;85.09
54854;BME280;40747;49.480;8.658;2023-05-08T12:43:17;100773.25;;;20.49;84.98
54854;BME280;40747;49.480;8.658;2023-05-08T12:45:42;100769.56;;;20.51;82.15
54854;BME280;40747;49.480;8.658;2023-05-08T12:48:10;100767.97;;;20.76;82.28
54854;BME280;40747;49.480;8.658;2023-05-08T12:50:40;100770.75;;;20.74;81.44
54854;BME280;40747;49.480;8.658;2023-05-08T12:53:16;100770.81;;;20.73;81.53
54854;BME280;40747;49.480;8.658;2023-05-08T12:56:08;100769.03;;;20.17;82.39
54854;BME280;40747;49.480;8.658;2023-05-08T12:58:34;100771.06;;;20.55;85.34
54854;BME280;40747;49.480;8.658;2023-05-08T13:01:04;100771.50;;;20.89;83.76
54854;BME280;40747;49.480;8.658;2023-05-08T13:03:29;100763.94;;;20.96;81.13
54854;BME280;40747;49.480;8.658;2023-05-08T13:05:57;100766.97;;;21.04;80.78
54854;BME280;40747;49.480;8.658;2023-05-08T13:08:33;100759.91;;;21.16;81.26
54854;BME280;40747;49.480;8.658;2023-05-08T13:11:00;100755.22;;;20.65;79.62
54854;BME280;40747;49.480;8.658;2023-05-08T13:13:29;100752.63;;;20.78;80.10
54854;BME280;40747;49.480;8.658;2023-05-08T13:15:55;100756.78;;;20.69;80.65
54854;BME280;40747;49.480;8.658;2023-05-08T13:18:22;100749.88;;;20.79;80.77
54854;BME280;40747;49.480;8.658;2023-05-08T13:20:48;100753.66;;;20.90;79.80
54854;BME280;40747;49.480;8.658;2023-05-08T13:23:13;100752.34;;;20.83;80.33
54854;BME280;40747;49.480;8.658;2023-05-08T13:25:39;100752.22;;;20.84;82.61
54854;BME280;40747;49.480;8.658;2023-05-08T13:28:06;100740.16;;;20.91;82.22